Time;durP1;ratioP1;P1;durP2;ratioP2;P2;SDS_P1;SDS_P2;PMS_P1;PMS_P2;Temp;Humidity;BMP_temperature;BMP_pressure;BME280_temperature;BME280_humidity;BME280_pressure;Samples;Min_cycle;Max_cycle;Signal;HPM_P1;HPM_P2
2021/05/01 00:01:33;;;;;;;;;;;23.90;58.10;;;;;;5135532;27;19946;-45
2021/05/01 00:03:59;;;;;;;;;;;23.90;58.20;;;;;;5130661;27;19929;-50
2021/05/01 00:06:25;;;;;;;;;;;23.90;58.10;;;;;;5128656;27;19953;-47
2021/05/01 00:08:51;;;;;;;;;;;23.90;58.00;;;;;;5135430;27;19919;-48
2021/05/01 00:11:18;;;;;;;;;;;23.90;58.00;;;;;;5130916;27;19915;-50
2021/05/01 00:13:44;;;;;;;;;;;23.80;57.90;;;;;;5132138;27;19956;-49
2021/05/01 00:16:10;;;;;;;;;;;23.80;57.80;;;;;;5138055;27;19922;-45
2021/05/01 00:18:36;;;;;;;;;;;23.80;57.80;;;;;;5135253;27;19903;-49
2021/05/01 00:21:03;;;;;;;;;;;23.90;57.80;;;;;;5120159;27;19907;-49
2021/05/01 00:23:29;;;;;;;;;;;23.80;57.70;;;;;;5128395;27;19907;-47
2021/05/01 00:25:55;;;;;;;;;;;23.80;57.80;;;;;;5130887;27;19914;-47
2021/05/01 00:28:21;;;;;;;;;;;23.80;57.80;;;;;;5135120;27;19907;-49
2021/05/01 00:30:47;;;;;;;;;;;23.80;57.70;;;;;;5130871;27;20445;-47
2021/05/01 00:33:13;;;;;;;;;;;23.80;57.70;;;;;;5130947;27;19907;-47
2021/05/01 00:35:38;;;;;;;;;;;23.80;57.60;;;;;;5136240;27;19944;-50
2021/05/01 00:38:04;;;;;;;;;;;23.80;57.50;;;;;;5132054;27;19954;-48
2021/05/01 00:40:30;;;;;;;;;;;23.70;57.40;;;;;;5135120;27;19948;-47
2021/05/01 00:42:56;;;;;;;;;;;23.70;57.40;;;;;;5116184;27;19903;-48
2021/05/01 00:45:22;;;;;;;;;;;23.70;57.20;;;;;;5130216;27;19907;-49
2021/05/01 00:47:48;;;;;;;;;;;23.70;57.20;;;;;;5129212;27;19908;-50
2021/05/01 00:50:14;;;;;;;;;;;23.70;57.10;;;;;;5133850;27;19996;-47
2021/05/01 00:52:40;;;;;;;;;;;23.70;57.20;;;;;;5133328;27;19907;-48
2021/05/01 00:55:06;;;;;;;;;;;23.70;57.20;;;;;;5125369;28;19914;-49
2021/05/01 00:57:32;;;;;;;;;;;23.70;57.30;;;;;;5133833;27;19911;-47
2021/05/01 00:59:58;;;;;;;;;;;23.70;57.40;;;;;;5134221;27;20068;-50
2021/05/01 01:02:27;;;;;;;;;;;23.60;57.00;;;;;;5138768;28;19911;-49
2021/05/01 01:04:53;;;;;;;;;;;23.60;57.30;;;;;;5137536;28;19907;-49
2021/05/01 01:07:19;;;;;;;;;;;23.60;57.40;;;;;;5133596;28;19914;-46
2021/05/01 01:09:45;;;;;;;;;;;23.60;57.10;;;;;;5135619;28;19943;-47
2021/05/01 01:12:11;;;;;;;;;;;23.60;57.40;;;;;;5134545;28;19907;-47
2021/05/01 01:14:37;;;;;;;;;;;23.60;57.60;;;;;;5133691;28;19904;-47
2021/05/01 01:17:04;;;;;;;;;;;23.60;57.30;;;;;;5121999;28;19992;-50
2021/05/01 01:19:30;;;;;;;;;;;23.60;57.50;;;;;;5135766;28;19960;-49
2021/05/01 01:21:56;;;;;;;;;;;23.60;57.40;;;;;;5129790;28;19904;-47
2021/05/01 01:24:24;;;;;;;;;;;23.50;57.40;;;;;;5127301;28;19904;-49
2021/05/01 01:26:50;;;;;;;;;;;23.50;57.50;;;;;;5131646;28;19991;-49
2021/05/01 01:29:16;;;;;;;;;;;23.50;57.40;;;;;;5134572;28;19914;-47
2021/05/01 01:31:42;;;;;;;;;;;23.50;57.80;;;;;;5134310;28;19913;-49
2021/05/01 01:34:08;;;;;;;;;;;23.50;57.90;;;;;;5130175;28;19979;-50
2021/05/01 01:36:34;;;;;;;;;;;23.40;57.90;;;;;;5129787;28;19978;-48
2021/05/01 01:39:00;;;;;;;;;;;23.40;57.80;;;;;;5130380;28;19949;-46
2021/05/01 01:41:26;;;;;;;;;;;23.40;57.80;;;;;;5136861;28;19994;-49
2021/05/01 01:43:52;;;;;;;;;;;23.40;57.60;;;;;;5134076;28;19907;-47
2021/05/01 01:46:17;;;;;;;;;;;23.30;57.30;;;;;;5135430;28;19907;-48
2021/05/01 01:48:43;;;;;;;;;;;23.30;57.10;;;;;;5130229;28;19930;-48
2021/05/01 01:51:09;;;;;;;;;;;23.30;57.40;;;;;;5134252;28;20005;-49
2021/05/01 01:53:35;;;;;;;;;;;23.30;57.30;;;;;;5138253;28;19968;-46
2021/05/01 01:56:01;;;;;;;;;;;23.30;57.00;;;;;;5133334;28;19926;-48
2021/05/01 01:58:27;;;;;;;;;;;23.30;57.00;;;;;;5134968;28;19911;-47
2021/05/01 02:00:54;;;;;;;;;;;23.30;57.00;;;;;;5136063;27;19971;-49
2021/05/01 02:03:19;;;;;;;;;;;23.20;56.90;;;;;;5137583;27;19907;-48
2021/05/01 02:05:46;;;;;;;;;;;23.20;56.90;;;;;;5133122;27;20361;-52
2021/05/01 02:08:12;;;;;;;;;;;23.20;57.00;;;;;;5136120;27;19907;-50
2021/05/01 02:10:38;;;;;;;;;;;23.20;57.00;;;;;;5133909;27;19923;-49
2021/05/01 02:13:04;;;;;;;;;;;23.20;57.00;;;;;;5137294;27;19911;-52
2021/05/01 02:15:30;;;;;;;;;;;23.20;57.00;;;;;;5130511;27;19937;-49
2021/05/01 02:17:56;;;;;;;;;;;23.20;57.00;;;;;;5136743;27;19942;-53
2021/05/01 02:20:26;;;;;;;;;;;23.10;57.00;;;;;;5137174;27;19911;-48
2021/05/01 02:22:52;;;;;;;;;;;23.10;57.00;;;;;;5134696;27;19946;-46
2021/05/01 02:25:18;;;;;;;;;;;23.10;57.10;;;;;;5134718;27;19908;-50
2021/05/01 02:27:44;;;;;;;;;;;23.10;57.00;;;;;;5132280;27;20364;-51
2021/05/01 02:30:14;;;;;;;;;;;23.10;57.10;;;;;;5136744;27;19914;-49
2021/05/01 02:32:40;;;;;;;;;;;23.10;57.20;;;;;;5142510;27;19915;-51
2021/05/01 02:35:07;;;;;;;;;;;23.00;57.10;;;;;;5131328;27;19914;-49
2021/05/01 02:37:33;;;;;;;;;;;23.00;57.10;;;;;;5125535;27;19916;-47
2021/05/01 02:39:59;;;;;;;;;;;23.00;57.20;;;;;;5136919;27;19903;-48
2021/05/01 02:42:25;;;;;;;;;;;23.00;57.30;;;;;;5134709;27;20344;-48
2021/05/01 02:44:51;;;;;;;;;;;23.00;57.30;;;;;;5135120;27;19908;-50
2021/05/01 02:47:17;;;;;;;;;;;22.90;57.30;;;;;;5131605;27;19907;-47
2021/05/01 02:49:43;;;;;;;;;;;22.90;57.30;;;;;;5138108;27;20013;-50
2021/05/01 02:52:09;;;;;;;;;;;22.90;57.40;;;;;;5133717;27;20334;-49
2021/05/01 02:54:35;;;;;;;;;;;22.80;57.30;;;;;;5131316;27;19916;-47
2021/05/01 02:57:01;;;;;;;;;;;22.80;57.20;;;;;;5126903;27;19961;-48
2021/05/01 02:59:27;;;;;;;;;;;22.80;57.30;;;;;;5129244;27;19907;-50
2021/05/01 03:01:53;;;;;;;;;;;22.80;57.40;;;;;;5119721;27;19915;-48
2021/05/01 03:04:18;;;;;;;;;;;22.80;57.30;;;;;;5135830;27;19908;-51
2021/05/01 03:06:44;;;;;;;;;;;22.80;57.30;;;;;;5132231;27;19951;-49
2021/05/01 03:09:10;;;;;;;;;;;22.80;57.30;;;;;;5132489;27;19941;-49
2021/05/01 03:11:36;;;;;;;;;;;22.80;57.40;;;;;;5132449;27;19908;-52
2021/05/01 03:14:02;;;;;;;;;;;22.70;57.30;;;;;;5132617;27;19907;-49
2021/05/01 03:16:28;;;;;;;;;;;22.70;57.30;;;;;;5133349;27;19922;-50
2021/05/01 03:18:54;;;;;;;;;;;22.70;57.30;;;;;;5127151;27;19935;-52
2021/05/01 03:21:20;;;;;;;;;;;22.70;57.40;;;;;;5136574;27;19974;-51
2021/05/01 03:23:48;;;;;;;;;;;22.70;57.50;;;;;;5129041;27;19903;-51
2021/05/01 03:26:15;;;;;;;;;;;22.70;57.30;;;;;;5137133;27;19914;-50
2021/05/01 03:28:40;;;;;;;;;;;22.60;57.30;;;;;;5133416;27;19983;-49
2021/05/01 03:31:06;;;;;;;;;;;22.60;57.40;;;;;;5130964;27;19903;-47
2021/05/01 03:33:32;;;;;;;;;;;22.60;57.40;;;;;;5134619;27;19976;-50
2021/05/01 03:35:58;;;;;;;;;;;22.50;57.40;;;;;;5132806;27;19924;-50
2021/05/01 03:38:24;;;;;;;;;;;22.50;57.40;;;;;;5128540;27;19907;-49
2021/05/01 03:40:50;;;;;;;;;;;22.50;57.50;;;;;;5134450;27;19911;-52
2021/05/01 03:43:16;;;;;;;;;;;22.50;57.50;;;;;;5132998;27;19912;-51
2021/05/01 03:45:42;;;;;;;;;;;22.50;57.50;;;;;;5135699;27;19914;-48
2021/05/01 03:48:08;;;;;;;;;;;22.50;57.60;;;;;;5130020;27;20369;-51
2021/05/01 03:50:34;;;;;;;;;;;22.50;57.50;;;;;;5135448;27;20649;-49
2021/05/01 03:53:00;;;;;;;;;;;22.40;57.60;;;;;;5137064;27;19911;-49
2021/05/01 03:55:26;;;;;;;;;;;22.40;57.60;;;;;;5128003;27;19904;-51
2021/05/01 03:57:52;;;;;;;;;;;22.40;57.60;;;;;;5131961;27;19986;-51
2021/05/01 04:00:19;;;;;;;;;;;22.40;57.60;;;;;;5143533;27;19914;-52
2021/05/01 04:02:44;;;;;;;;;;;22.40;57.60;;;;;;5129812;27;19932;-51
2021/05/01 04:05:11;;;;;;;;;;;22.30;57.60;;;;;;5137218;27;19943;-50
2021/05/01 04:07:37;;;;;;;;;;;22.30;57.80;;;;;;5135433;27;19904;-52
2021/05/01 04:10:03;;;;;;;;;;;22.30;57.80;;;;;;5136665;27;19981;-49
2021/05/01 04:12:29;;;;;;;;;;;22.30;58.00;;;;;;5128154;27;19908;-50
2021/05/01 04:14:55;;;;;;;;;;;22.30;57.90;;;;;;5138495;27;19911;-48
2021/05/01 04:17:20;;;;;;;;;;;22.30;57.80;;;;;;5133002;27;19915;-49
2021/05/01 04:19:48;;;;;;;;;;;22.20;57.90;;;;;;5136233;27;19907;-49
2021/05/01 04:22:16;;;;;;;;;;;22.20;58.10;;;;;;5132306;27;19908;-50
2021/05/01 04:24:41;;;;;;;;;;;22.20;58.00;;;;;;5128379;27;19908;-51
2021/05/01 04:27:07;;;;;;;;;;;22.20;58.00;;;;;;5116635;28;19911;-52
2021/05/01 04:29:33;;;;;;;;;;;22.20;58.00;;;;;;5139619;27;19907;-51
2021/05/01 04:31:59;;;;;;;;;;;22.10;58.00;;;;;;5136947;27;19903;-50
2021/05/01 04:34:25;;;;;;;;;;;22.10;58.00;;;;;;5138644;27;19914;-50
2021/05/01 04:36:51;;;;;;;;;;;22.10;58.00;;;;;;5132944;27;19929;-49
2021/05/01 04:39:17;;;;;;;;;;;22.10;58.80;;;;;;5134541;27;19903;-48
2021/05/01 04:41:43;;;;;;;;;;;22.00;58.10;;;;;;5135135;27;19907;-52
2021/05/01 04:44:09;;;;;;;;;;;22.00;58.10;;;;;;5137125;27;19930;-51
2021/05/01 04:46:35;;;;;;;;;;;22.00;58.20;;;;;;5135835;27;19912;-53
2021/05/01 04:49:04;;;;;;;;;;;22.00;58.10;;;;;;5132733;27;19908;-49
2021/05/01 04:51:29;;;;;;;;;;;22.00;58.10;;;;;;5130534;27;19913;-51
2021/05/01 04:53:56;;;;;;;;;;;22.00;58.30;;;;;;5128978;27;20839;-50
2021/05/01 04:56:21;;;;;;;;;;;22.00;58.30;;;;;;5129457;27;19961;-51
2021/05/01 04:58:47;;;;;;;;;;;21.90;58.30;;;;;;5135526;27;20703;-48
2021/05/01 05:01:13;;;;;;;;;;;21.90;58.40;;;;;;5135991;27;19953;-51
2021/05/01 05:03:39;;;;;;;;;;;21.90;58.30;;;;;;5129211;28;19907;-53
2021/05/01 05:06:05;;;;;;;;;;;21.90;58.30;;;;;;5131023;28;19938;-51
2021/05/01 05:08:31;;;;;;;;;;;21.90;58.50;;;;;;5132438;28;19949;-51
2021/05/01 05:10:57;;;;;;;;;;;21.80;58.30;;;;;;5126886;28;19912;-50
2021/05/01 05:13:26;;;;;;;;;;;21.80;58.40;;;;;;5131864;28;19910;-49
2021/05/01 05:15:52;;;;;;;;;;;21.80;58.40;;;;;;5133801;28;19907;-50
2021/05/01 05:18:18;;;;;;;;;;;21.80;58.40;;;;;;5126987;28;19918;-51
2021/05/01 05:20:43;;;;;;;;;;;21.80;58.30;;;;;;5134099;28;19907;-48
2021/05/01 05:23:09;;;;;;;;;;;21.80;58.30;;;;;;5133115;28;19911;-52
2021/05/01 05:25:35;;;;;;;;;;;21.70;58.40;;;;;;5136603;28;19975;-49
2021/05/01 05:28:01;;;;;;;;;;;21.70;58.40;;;;;;5135550;28;19914;-51
2021/05/01 05:30:27;;;;;;;;;;;21.70;58.40;;;;;;5131187;28;20389;-47
2021/05/01 05:32:56;;;;;;;;;;;21.60;58.30;;;;;;5131364;28;19907;-49
2021/05/01 05:35:22;;;;;;;;;;;21.70;58.50;;;;;;5105823;28;19911;-49
2021/05/01 05:37:48;;;;;;;;;;;21.70;58.50;;;;;;5142066;27;19910;-48
2021/05/01 05:40:14;;;;;;;;;;;21.60;58.60;;;;;;5133857;27;19978;-52
2021/05/01 05:42:42;;;;;;;;;;;21.60;58.40;;;;;;5131977;27;19918;-51
2021/05/01 05:45:08;;;;;;;;;;;21.60;58.50;;;;;;5132504;27;19907;-51
2021/05/01 05:47:34;;;;;;;;;;;21.60;58.60;;;;;;5134889;27;19908;-47
2021/05/01 05:50:00;;;;;;;;;;;21.60;58.70;;;;;;5134916;27;19914;-52
2021/05/01 05:52:26;;;;;;;;;;;21.60;58.70;;;;;;5131468;27;19908;-52
2021/05/01 05:54:52;;;;;;;;;;;21.50;58.60;;;;;;5133351;27;19962;-50
2021/05/01 05:57:18;;;;;;;;;;;21.50;58.60;;;;;;5137245;27;19923;-49
2021/05/01 05:59:44;;;;;;;;;;;21.50;58.80;;;;;;5135462;27;20286;-49
2021/05/01 06:02:14;;;;;;;;;;;21.50;58.90;;;;;;5138411;27;19911;-48
2021/05/01 06:04:41;;;;;;;;;;;21.50;58.60;;;;;;5137826;27;19912;-51
2021/05/01 06:07:12;;;;;;;;;;;21.40;58.70;;;;;;5111581;28;19912;-50
2021/05/01 06:09:39;;;;;;;;;;;21.40;58.80;;;;;;5130771;27;19926;-49
2021/05/01 06:12:05;;;;;;;;;;;21.40;58.90;;;;;;5127466;27;19957;-49
2021/05/01 06:14:31;;;;;;;;;;;21.40;58.80;;;;;;5110945;28;19908;-50
2021/05/01 06:16:57;;;;;;;;;;;21.40;58.80;;;;;;5142516;27;19989;-49
2021/05/01 06:19:23;;;;;;;;;;;21.30;58.90;;;;;;5117236;27;19911;-50
2021/05/01 06:21:49;;;;;;;;;;;21.30;58.90;;;;;;5132786;27;19907;-48
2021/05/01 06:24:16;;;;;;;;;;;21.30;58.80;;;;;;5131284;27;19914;-51
2021/05/01 06:26:42;;;;;;;;;;;21.30;58.90;;;;;;5114973;27;20672;-49
2021/05/01 06:29:07;;;;;;;;;;;21.30;58.80;;;;;;5137234;27;19907;-50
2021/05/01 06:31:35;;;;;;;;;;;21.20;58.90;;;;;;5137762;27;20444;-50
2021/05/01 06:34:01;;;;;;;;;;;21.20;58.80;;;;;;5134949;27;19941;-50
2021/05/01 06:36:27;;;;;;;;;;;21.20;58.90;;;;;;5134018;27;19923;-52
2021/05/01 06:38:58;;;;;;;;;;;21.20;58.90;;;;;;5130398;27;19952;-52
2021/05/01 06:41:24;;;;;;;;;;;21.10;58.90;;;;;;5135382;27;19912;-52
2021/05/01 06:44:03;;;;;;;;;;;21.10;58.80;;;;;;5113177;28;19942;-52
2021/05/01 06:46:29;;;;;;;;;;;21.10;58.90;;;;;;5135114;27;19907;-51
2021/05/01 06:48:55;;;;;;;;;;;21.10;58.90;;;;;;5138271;27;19908;-53
2021/05/01 06:51:21;;;;;;;;;;;21.10;59.00;;;;;;5115023;28;19956;-50
2021/05/01 06:53:47;;;;;;;;;;;21.10;59.00;;;;;;5137640;27;19911;-50
2021/05/01 06:56:13;;;;;;;;;;;21.00;58.90;;;;;;5136789;27;19919;-50
2021/05/01 06:58:40;;;;;;;;;;;21.00;59.20;;;;;;5132647;27;19976;-50
2021/05/01 07:01:07;;;;;;;;;;;21.00;59.00;;;;;;5132796;27;19915;-48
2021/05/01 07:03:33;;;;;;;;;;;21.00;59.10;;;;;;5131548;27;19914;-49
2021/05/01 07:06:00;;;;;;;;;;;21.00;59.60;;;;;;5137189;27;19903;-51
2021/05/01 07:08:26;;;;;;;;;;;21.00;59.10;;;;;;5118558;27;20363;-49
2021/05/01 07:10:52;;;;;;;;;;;20.90;59.10;;;;;;5118248;27;19930;-50
2021/05/01 07:13:18;;;;;;;;;;;20.90;59.10;;;;;;5132396;27;19915;-49
2021/05/01 07:15:44;;;;;;;;;;;20.90;59.10;;;;;;5138999;27;19911;-51
2021/05/01 07:18:11;;;;;;;;;;;20.90;59.10;;;;;;5135002;27;19911;-49
2021/05/01 07:20:37;;;;;;;;;;;20.90;59.20;;;;;;5136315;27;19907;-49
2021/05/01 07:23:02;;;;;;;;;;;20.90;59.20;;;;;;5134105;27;19912;-52
2021/05/01 07:25:28;;;;;;;;;;;20.90;59.20;;;;;;5128108;27;19908;-49
2021/05/01 07:27:56;;;;;;;;;;;20.80;59.10;;;;;;5132165;27;19903;-49
2021/05/01 07:30:23;;;;;;;;;;;20.80;59.20;;;;;;5127654;27;19903;-51
2021/05/01 07:32:50;;;;;;;;;;;20.80;59.20;;;;;;5138576;27;19915;-49
2021/05/01 07:35:16;;;;;;;;;;;20.80;59.30;;;;;;5117208;27;19903;-50
2021/05/01 07:37:42;;;;;;;;;;;20.70;59.20;;;;;;5124139;28;20002;-49
2021/05/01 07:40:11;;;;;;;;;;;20.70;59.20;;;;;;5129361;27;19907;-52
2021/05/01 07:42:37;;;;;;;;;;;20.70;59.20;;;;;;5136051;27;19910;-51
2021/05/01 07:45:04;;;;;;;;;;;20.70;59.30;;;;;;5135956;27;19909;-50
2021/05/01 07:47:30;;;;;;;;;;;20.70;59.30;;;;;;5133650;27;19915;-51
2021/05/01 07:49:56;;;;;;;;;;;20.70;59.30;;;;;;5138166;27;19908;-52
2021/05/01 07:52:22;;;;;;;;;;;20.60;59.30;;;;;;5131600;27;19914;-53
2021/05/01 07:54:48;;;;;;;;;;;20.60;59.30;;;;;;5136741;27;19907;-50
2021/05/01 07:57:14;;;;;;;;;;;20.60;59.40;;;;;;5133929;27;19916;-52
2021/05/01 07:59:39;;;;;;;;;;;20.60;59.40;;;;;;5139457;27;19914;-52
2021/05/01 08:02:05;;;;;;;;;;;20.60;59.40;;;;;;5136499;27;20019;-51
2021/05/01 08:04:31;;;;;;;;;;;20.60;59.60;;;;;;5138601;27;19911;-51
2021/05/01 08:06:58;;;;;;;;;;;20.50;59.40;;;;;;5137838;27;19914;-51
2021/05/01 08:09:24;;;;;;;;;;;20.50;59.60;;;;;;5131778;27;19923;-49
2021/05/01 08:11:50;;;;;;;;;;;20.50;59.60;;;;;;5133512;27;19919;-49
2021/05/01 08:14:16;;;;;;;;;;;20.50;59.40;;;;;;5134195;27;19908;-52
2021/05/01 08:16:42;;;;;;;;;;;20.50;59.40;;;;;;5137476;27;19915;-49
2021/05/01 08:19:07;;;;;;;;;;;20.50;59.50;;;;;;5131110;27;19907;-50
2021/05/01 08:21:35;;;;;;;;;;;20.40;59.40;;;;;;5135501;27;19914;-50
2021/05/01 08:24:01;;;;;;;;;;;20.40;59.50;;;;;;5130366;27;19919;-51
2021/05/01 08:26:27;;;;;;;;;;;20.40;59.50;;;;;;5115792;27;19907;-49
2021/05/01 08:28:53;;;;;;;;;;;20.40;59.60;;;;;;5136186;27;19907;-51
2021/05/01 08:31:19;;;;;;;;;;;20.40;59.60;;;;;;5131970;27;19952;-49
2021/05/01 08:33:45;;;;;;;;;;;20.30;59.60;;;;;;5127632;27;19915;-52
2021/05/01 08:36:11;;;;;;;;;;;20.30;59.60;;;;;;5131466;27;19975;-49
2021/05/01 08:38:37;;;;;;;;;;;20.30;59.60;;;;;;5131730;27;20458;-49
2021/05/01 08:41:03;;;;;;;;;;;20.30;59.60;;;;;;5130377;27;19960;-48
2021/05/01 08:43:29;;;;;;;;;;;20.30;59.70;;;;;;5130719;27;19907;-51
2021/05/01 08:45:57;;;;;;;;;;;20.30;59.70;;;;;;5137763;27;19908;-49
2021/05/01 08:48:24;;;;;;;;;;;20.20;59.60;;;;;;5131906;27;19930;-50
2021/05/01 08:51:00;;;;;;;;;;;20.20;59.70;;;;;;5135213;27;19907;-48
2021/05/01 08:53:26;;;;;;;;;;;20.20;59.70;;;;;;5128333;27;19907;-52
2021/05/01 08:55:52;;;;;;;;;;;20.20;59.70;;;;;;5129224;27;20439;-51
2021/05/01 08:58:18;;;;;;;;;;;20.20;59.70;;;;;;5127313;27;19907;-51
2021/05/01 09:00:47;;;;;;;;;;;20.10;59.70;;;;;;5129602;27;19914;-52
2021/05/01 09:03:13;;;;;;;;;;;20.10;59.70;;;;;;5134842;27;19908;-49
2021/05/01 09:05:39;;;;;;;;;;;20.10;59.70;;;;;;5132966;28;19914;-51
2021/05/01 09:08:05;;;;;;;;;;;20.10;59.70;;;;;;5117162;28;19911;-51
2021/05/01 09:10:41;;;;;;;;;;;20.10;59.70;;;;;;5116223;27;19923;-51
2021/05/01 09:13:13;;;;;;;;;;;20.10;59.80;;;;;;5133151;27;19945;-52
2021/05/01 09:15:39;;;;;;;;;;;20.00;59.70;;;;;;5136525;27;19907;-52
2021/05/01 09:18:05;;;;;;;;;;;20.00;59.80;;;;;;5140059;27;19918;-52
2021/05/01 09:20:31;;;;;;;;;;;20.00;59.80;;;;;;5135399;27;19915;-51
2021/05/01 09:22:58;;;;;;;;;;;20.00;59.80;;;;;;5134946;27;19912;-53
2021/05/01 09:25:25;;;;;;;;;;;20.00;59.80;;;;;;5139150;27;20304;-51
2021/05/01 09:27:59;;;;;;;;;;;19.90;59.80;;;;;;5138812;27;19976;-51
2021/05/01 09:30:29;;;;;;;;;;;19.90;59.80;;;;;;5138555;27;20006;-52
2021/05/01 09:33:13;;;;;;;;;;;19.90;59.80;;;;;;5139009;27;19903;-50
2021/05/01 09:35:39;;;;;;;;;;;19.90;59.90;;;;;;5136403;27;19921;-50
2021/05/01 09:38:05;;;;;;;;;;;19.90;59.90;;;;;;5124735;27;19947;-52
2021/05/01 09:40:31;;;;;;;;;;;19.80;59.80;;;;;;5121218;27;19918;-51
2021/05/01 09:43:17;;;;;;;;;;;19.80;59.80;;;;;;5136044;27;20430;-54
2021/05/01 09:45:43;;;;;;;;;;;19.80;59.90;;;;;;5132321;27;20288;-53
2021/05/01 09:48:12;;;;;;;;;;;19.80;59.90;;;;;;5134719;27;19915;-50
2021/05/01 09:50:38;;;;;;;;;;;19.80;60.00;;;;;;5134698;27;19914;-51
2021/05/01 09:53:08;;;;;;;;;;;19.80;60.00;;;;;;5132319;27;19908;-48
2021/05/01 09:55:40;;;;;;;;;;;19.80;60.00;;;;;;5136855;27;20023;-52
2021/05/01 09:58:16;;;;;;;;;;;19.70;59.90;;;;;;5134866;27;20295;-50
2021/05/01 10:00:42;;;;;;;;;;;19.70;60.00;;;;;;5134990;27;19908;-50
2021/05/01 10:03:21;;;;;;;;;;;19.70;60.00;;;;;;5134807;27;19971;-49
2021/05/01 10:05:47;;;;;;;;;;;19.70;60.00;;;;;;5127018;27;19908;-50
2021/05/01 10:08:13;;;;;;;;;;;19.70;60.00;;;;;;5112040;28;19996;-53
2021/05/01 10:10:40;;;;;;;;;;;19.60;60.00;;;;;;5121779;27;19919;-49
2021/05/01 10:13:06;;;;;;;;;;;19.60;60.00;;;;;;5142487;27;19946;-48
2021/05/01 10:15:31;;;;;;;;;;;19.60;60.10;;;;;;5137206;27;19907;-49
2021/05/01 10:18:11;;;;;;;;;;;19.60;60.10;;;;;;5140402;27;19915;-51
2021/05/01 10:20:41;;;;;;;;;;;19.60;60.10;;;;;;5139838;27;19907;-52
2021/05/01 10:23:07;;;;;;;;;;;19.60;60.10;;;;;;5141405;27;19904;-51
2021/05/01 10:25:34;;;;;;;;;;;19.60;60.20;;;;;;5135034;27;20537;-51
2021/05/01 10:28:07;;;;;;;;;;;19.50;60.10;;;;;;5137628;27;19914;-50
2021/05/01 10:30:36;;;;;;;;;;;19.50;60.10;;;;;;5136407;27;19926;-52
2021/05/01 10:33:23;;;;;;;;;;;19.50;60.20;;;;;;5134086;27;19915;-51
2021/05/01 10:36:09;;;;;;;;;;;19.50;60.20;;;;;;5137258;27;20383;-49
2021/05/01 10:38:35;;;;;;;;;;;19.50;61.00;;;;;;5117147;27;19911;-49
2021/05/01 10:41:04;;;;;;;;;;;19.50;60.30;;;;;;5134235;27;19911;-49
2021/05/01 10:43:31;;;;;;;;;;;19.40;60.30;;;;;;5138347;27;19907;-51
2021/05/01 10:46:05;;;;;;;;;;;19.40;60.40;;;;;;5136633;27;20510;-51
2021/05/01 10:48:30;;;;;;;;;;;19.40;60.30;;;;;;5135108;27;19918;-50
2021/05/01 10:51:04;;;;;;;;;;;19.40;60.40;;;;;;5134161;27;19907;-50
2021/05/01 10:53:30;;;;;;;;;;;19.40;60.30;;;;;;5138159;27;19929;-49
2021/05/01 10:55:56;;;;;;;;;;;19.40;60.40;;;;;;5137726;27;19911;-51
2021/05/01 10:58:41;;;;;;;;;;;19.30;60.30;;;;;;5134487;27;19907;-51
2021/05/01 11:01:26;;;;;;;;;;;19.30;60.40;;;;;;5127112;27;19904;-50
2021/05/01 11:03:52;;;;;;;;;;;19.30;60.40;;;;;;5136888;27;19915;-52
2021/05/01 11:06:22;;;;;;;;;;;19.30;60.40;;;;;;5116830;27;19908;-49
2021/05/01 11:09:03;;;;;;;;;;;19.30;60.50;;;;;;5138777;27;19908;-51
2021/05/01 11:11:31;;;;;;;;;;;19.30;60.50;;;;;;5138282;27;19934;-50
2021/05/01 11:13:56;;;;;;;;;;;19.20;60.50;;;;;;5133676;27;19907;-51
2021/05/01 11:16:23;;;;;;;;;;;19.20;60.50;;;;;;5116160;27;19911;-51
2021/05/01 11:18:49;;;;;;;;;;;19.20;60.50;;;;;;5113146;27;19912;-51
2021/05/01 11:21:15;;;;;;;;;;;19.20;60.50;;;;;;5117387;27;20475;-49
2021/05/01 11:23:40;;;;;;;;;;;19.20;60.50;;;;;;5116138;27;19911;-52
2021/05/01 11:26:07;;;;;;;;;;;19.20;60.60;;;;;;5114016;28;19903;-48
2021/05/01 11:28:33;;;;;;;;;;;19.10;60.60;;;;;;5132754;27;19914;-52
2021/05/01 11:30:59;;;;;;;;;;;19.10;60.60;;;;;;5130979;27;19904;-52
2021/05/01 11:33:28;;;;;;;;;;;19.10;60.60;;;;;;5131189;27;19950;-52
2021/05/01 11:35:54;;;;;;;;;;;19.10;60.60;;;;;;5133624;27;19912;-52
2021/05/01 11:38:27;;;;;;;;;;;19.10;60.70;;;;;;5131142;27;19952;-50
2021/05/01 11:40:54;;;;;;;;;;;19.10;60.70;;;;;;5135413;27;19914;-52
2021/05/01 11:43:22;;;;;;;;;;;19.10;60.70;;;;;;5133159;27;20409;-52
2021/05/01 11:45:52;;;;;;;;;;;19.00;60.60;;;;;;5137868;27;19929;-54
2021/05/01 11:48:27;;;;;;;;;;;19.00;60.70;;;;;;5113911;28;19922;-49
2021/05/01 11:50:53;;;;;;;;;;;19.00;60.70;;;;;;5112225;27;19925;-53
2021/05/01 11:53:24;;;;;;;;;;;19.00;60.70;;;;;;5131684;27;19907;-51
2021/05/01 11:55:53;;;;;;;;;;;19.00;60.70;;;;;;5133996;27;19907;-50
2021/05/01 11:58:29;;;;;;;;;;;19.00;60.70;;;;;;5117402;27;19938;-51
2021/05/01 12:00:55;;;;;;;;;;;18.90;60.70;;;;;;5134976;27;19943;-52
2021/05/01 12:03:21;;;;;;;;;;;18.90;60.70;;;;;;5113721;28;19957;-51
2021/05/01 12:06:00;;;;;;;;;;;18.90;60.80;;;;;;5131061;27;19908;-51
2021/05/01 12:08:26;;;;;;;;;;;18.90;60.70;;;;;;5116862;28;19908;-52
2021/05/01 12:10:56;;;;;;;;;;;18.90;60.80;;;;;;5113909;27;20032;-53
2021/05/01 12:13:27;;;;;;;;;;;18.90;60.80;;;;;;5127722;27;19907;-52
2021/05/01 12:15:56;;;;;;;;;;;18.90;60.80;;;;;;5120073;27;19911;-52
2021/05/01 12:18:22;;;;;;;;;;;18.90;60.80;;;;;;5117298;27;19907;-53
2021/05/01 12:20:52;;;;;;;;;;;18.80;60.80;;;;;;5112506;27;19952;-51
2021/05/01 12:23:36;;;;;;;;;;;18.80;60.70;;;;;;5127526;27;19918;-52
2021/05/01 12:26:04;;;;;;;;;;;18.80;60.80;;;;;;5128881;27;19907;-49
2021/05/01 12:28:33;;;;;;;;;;;18.80;60.80;;;;;;5135053;27;19994;-48
2021/05/01 12:30:59;;;;;;;;;;;18.80;60.80;;;;;;5131817;27;19904;-50
2021/05/01 12:33:29;;;;;;;;;;;18.80;60.80;;;;;;5130822;27;19913;-52
2021/05/01 12:36:08;;;;;;;;;;;18.80;60.90;;;;;;5122345;27;19929;-50
2021/05/01 12:38:34;;;;;;;;;;;18.80;60.90;;;;;;5132398;27;19939;-50
2021/05/01 12:41:07;;;;;;;;;;;18.80;60.90;;;;;;5109049;28;19908;-52
2021/05/01 12:43:32;;;;;;;;;;;18.80;61.00;;;;;;5128097;27;19908;-50
2021/05/01 12:45:59;;;;;;;;;;;18.80;61.00;;;;;;5111259;27;19907;-48
2021/05/01 12:48:43;;;;;;;;;;;18.70;60.90;;;;;;5134981;27;19904;-50
2021/05/01 12:51:10;;;;;;;;;;;18.70;60.90;;;;;;5133152;27;19907;-51
2021/05/01 12:53:36;;;;;;;;;;;18.70;60.90;;;;;;5132665;27;19938;-51
2021/05/01 12:56:20;;;;;;;;;;;18.70;60.90;;;;;;5123449;28;19919;-53
2021/05/01 12:58:46;;;;;;;;;;;18.70;61.00;;;;;;5132437;27;19998;-51
2021/05/01 13:01:22;;;;;;;;;;;18.70;60.90;;;;;;5130366;27;20470;-50
2021/05/01 13:04:06;;;;;;;;;;;18.70;61.00;;;;;;5125110;27;19928;-50
2021/05/01 13:06:32;;;;;;;;;;;18.70;61.00;;;;;;5129164;27;19909;-52
2021/05/01 13:08:58;;;;;;;;;;;18.70;61.00;;;;;;5118756;28;19907;-52
2021/05/01 13:11:30;;;;;;;;;;;18.70;61.00;;;;;;5115823;28;19911;-53
2021/05/01 13:14:15;;;;;;;;;;;18.70;61.00;;;;;;5132585;28;19907;-49
2021/05/01 13:17:14;;;;;;;;;;;18.70;61.00;;;;;;5128820;28;19960;-48
2021/05/01 13:19:45;;;;;;;;;;;18.70;61.00;;;;;;5059894;28;19913;-50
2021/05/01 13:22:15;;;;;;;;;;;18.70;61.00;;;;;;5065342;28;19916;-49
2021/05/01 13:24:41;;;;;;;;;;;18.70;61.00;;;;;;5057790;28;20423;-53
2021/05/01 13:27:10;;;;;;;;;;;18.70;61.00;;;;;;5061077;28;20440;-47
2021/05/01 13:29:37;;;;;;;;;;;18.80;61.00;;;;;;5050588;28;20514;-52
2021/05/01 13:32:04;;;;;;;;;;;18.80;61.00;;;;;;5069491;28;20003;-50
2021/05/01 13:34:30;;;;;;;;;;;18.80;60.90;;;;;;5058662;28;19909;-53
2021/05/01 13:36:56;;;;;;;;;;;18.80;61.00;;;;;;5066632;28;19938;-49
2021/05/01 13:39:23;;;;;;;;;;;18.80;61.10;;;;;;5054090;28;20025;-49
2021/05/01 13:42:07;;;;;;;;;;;18.80;61.00;;;;;;5067172;28;19909;-51
2021/05/01 13:44:45;;;;;;;;;;;18.80;61.70;;;;;;5044021;28;19916;-48
2021/05/01 13:47:17;;;;;;;;;;;18.80;61.00;;;;;;5066747;28;19913;-52
2021/05/01 13:49:42;;;;;;;;;;;18.80;61.10;;;;;;5071228;28;19915;-54
2021/05/01 13:52:09;;;;;;;;;;;18.80;61.00;;;;;;5072994;28;19908;-51
2021/05/01 13:54:35;;;;;;;;;;;18.80;61.10;;;;;;5080516;28;19928;-52
2021/05/01 13:57:10;;;;;;;;;;;18.80;61.00;;;;;;5134825;27;19919;-51
2021/05/01 13:59:38;;;;;;;;;;;18.80;61.00;;;;;;5120736;27;19907;-48
2021/05/01 14:02:04;;;;;;;;;;;18.90;61.10;;;;;;5126959;28;19999;-49
2021/05/01 14:04:34;;;;;;;;;;;18.90;61.10;;;;;;5117405;27;19943;-52
2021/05/01 14:07:02;;;;;;;;;;;18.90;61.00;;;;;;5112516;27;19907;-52
2021/05/01 14:09:29;;;;;;;;;;;18.90;60.90;;;;;;5133350;27;19919;-52
2021/05/01 14:11:55;;;;;;;;;;;18.90;60.90;;;;;;5130382;27;19970;-52
2021/05/01 14:14:22;;;;;;;;;;;18.90;60.90;;;;;;5132077;27;19911;-48
2021/05/01 14:16:57;;;;;;;;;;;18.90;60.90;;;;;;5139333;27;19915;-51
2021/05/01 14:19:24;;;;;;;;;;;18.90;60.90;;;;;;5138432;27;19912;-52